createdAt,value
2022-08-29T00:00:59.942Z,19.31
2022-08-29T00:03:28.328Z,19.33
2022-08-29T00:05:56.594Z,19.27
2022-08-29T00:08:24.384Z,19.21
2022-08-29T00:10:51.217Z,19.24
2022-08-29T00:13:18.079Z,19.30
2022-08-29T00:15:45.481Z,19.30
2022-08-29T00:18:15.349Z,19.31
2022-08-29T00:20:43.264Z,19.31
2022-08-29T00:23:10.471Z,19.23
2022-08-29T00:25:39.406Z,19.14
2022-08-29T00:28:06.547Z,19.06
2022-08-29T00:30:34.998Z,19.08
2022-08-29T00:33:02.180Z,19.12
2022-08-29T00:35:36.584Z,19.13
2022-08-29T00:38:06.050Z,18.83
2022-08-29T00:40:42.853Z,18.86
2022-08-29T00:43:24.542Z,18.93
2022-08-29T00:46:46.147Z,18.88
2022-08-29T00:49:43.189Z,18.83
2022-08-29T00:52:19.525Z,18.85
2022-08-29T00:54:51.548Z,18.91
2022-08-29T00:57:23.746Z,18.91
2022-08-29T00:59:51.726Z,18.96
2022-08-29T01:02:19.208Z,18.97
2022-08-29T01:04:46.533Z,18.86
2022-08-29T01:07:13.391Z,18.88
2022-08-29T01:09:43.756Z,18.80
2022-08-29T01:12:16.787Z,18.88
2022-08-29T01:14:47.892Z,18.85
2022-08-29T01:17:31.801Z,18.64
2022-08-29T01:20:14.093Z,18.61
2022-08-29T01:23:09.930Z,18.54
2022-08-29T01:25:46.449Z,18.55
2022-08-29T01:28:27.534Z,18.54
2022-08-29T01:31:46.075Z,18.52
2022-08-29T01:34:13.428Z,18.54
2022-08-29T01:36:51.989Z,18.49
2022-08-29T01:39:22.937Z,18.47
2022-08-29T01:41:50.174Z,18.44
2022-08-29T01:44:20.528Z,18.48
2022-08-29T01:46:51.073Z,18.30
2022-08-29T01:49:19.592Z,18.44
2022-08-29T01:51:46.710Z,18.41
2022-08-29T01:54:14.394Z,18.41
2022-08-29T01:56:50.085Z,18.43
2022-08-29T01:59:22.453Z,18.33
2022-08-29T02:02:10.935Z,18.33
2022-08-29T02:04:40.838Z,18.26
2022-08-29T02:07:12.441Z,18.38
2022-08-29T02:09:40.311Z,18.38
2022-08-29T02:12:14.576Z,18.30
2022-08-29T02:14:42.256Z,18.36
2022-08-29T02:17:09.280Z,18.28
2022-08-29T02:19:38.915Z,18.27
2022-08-29T02:22:07.166Z,18.26
2022-08-29T02:24:34.117Z,18.06
2022-08-29T02:27:01.035Z,18.20
2022-08-29T02:29:37.044Z,18.31
2022-08-29T02:32:11.975Z,18.29
2022-08-29T02:34:44.477Z,18.30
2022-08-29T02:37:14.395Z,18.29
2022-08-29T02:39:41.209Z,18.17
2022-08-29T02:42:08.262Z,18.12
2022-08-29T02:44:35.099Z,18.22
2022-08-29T02:47:01.999Z,18.16
2022-08-29T02:49:28.908Z,18.02
2022-08-29T02:51:57.185Z,18.10
2022-08-29T02:54:24.017Z,18.07
2022-08-29T02:56:50.830Z,17.95
2022-08-29T02:59:17.705Z,18.00
2022-08-29T03:01:44.533Z,17.93
2022-08-29T03:04:11.479Z,17.94
2022-08-29T03:06:38.272Z,18.03
2022-08-29T03:09:05.105Z,18.04
2022-08-29T03:11:32.013Z,17.91
2022-08-29T03:13:58.826Z,17.88
2022-08-29T03:16:27.008Z,17.94
2022-08-29T03:18:54.597Z,17.73
2022-08-29T03:21:25.574Z,17.81
2022-08-29T03:23:53.491Z,17.71
2022-08-29T03:26:20.584Z,17.63
2022-08-29T03:28:48.196Z,17.67
2022-08-29T03:31:15.525Z,17.69
2022-08-29T03:33:43.182Z,17.59
2022-08-29T03:36:14.192Z,17.82
2022-08-29T03:38:42.534Z,17.74
2022-08-29T03:41:09.827Z,17.65
2022-08-29T03:43:36.707Z,17.74
2022-08-29T03:46:03.730Z,17.75
2022-08-29T03:48:30.639Z,17.68
2022-08-29T03:50:57.463Z,17.65
2022-08-29T03:53:24.325Z,17.39
2022-08-29T03:55:51.945Z,17.61
2022-08-29T03:58:19.412Z,17.63
2022-08-29T04:00:46.875Z,17.55
2022-08-29T04:03:13.984Z,17.54
2022-08-29T04:05:41.284Z,17.64
2022-08-29T04:08:08.570Z,17.64
2022-08-29T04:10:38.358Z,17.56
2022-08-29T04:13:07.435Z,17.60
2022-08-29T04:15:35.739Z,17.52
2022-08-29T04:18:07.020Z,17.54
2022-08-29T04:20:38.292Z,17.48
2022-08-29T04:23:06.465Z,17.46
2022-08-29T04:25:37.560Z,17.56
2022-08-29T04:28:08.190Z,17.49
2022-08-29T04:30:36.056Z,17.50
2022-08-29T04:33:02.897Z,17.52
2022-08-29T04:35:30.028Z,17.48
2022-08-29T04:37:57.304Z,17.35
2022-08-29T04:40:24.262Z,17.46
2022-08-29T04:42:51.606Z,17.56
2022-08-29T04:45:22.179Z,17.59
2022-08-29T04:47:49.683Z,17.58
2022-08-29T04:50:23.359Z,17.49
2022-08-29T04:52:52.252Z,17.49
2022-08-29T04:55:25.645Z,17.39
2022-08-29T04:57:56.325Z,17.41
2022-08-29T05:00:28.173Z,17.26
2022-08-29T05:02:55.802Z,17.15
2022-08-29T05:05:22.826Z,17.32
2022-08-29T05:07:49.664Z,17.26
2022-08-29T05:10:20.269Z,17.25
2022-08-29T05:12:47.665Z,17.31
2022-08-29T05:15:16.310Z,17.16
2022-08-29T05:17:44.559Z,17.34
2022-08-29T05:20:12.496Z,17.33
2022-08-29T05:22:42.028Z,17.39
2022-08-29T05:25:15.750Z,17.39
2022-08-29T05:27:44.501Z,17.44
2022-08-29T05:30:11.522Z,17.44
2022-08-29T05:32:39.124Z,17.54
2022-08-29T05:35:06.349Z,17.49
2022-08-29T05:37:33.658Z,17.53
2022-08-29T05:40:00.608Z,17.46
2022-08-29T05:42:27.600Z,17.50
2022-08-29T05:44:54.470Z,17.64
2022-08-29T05:47:21.790Z,17.57
2022-08-29T05:49:49.558Z,17.73
2022-08-29T05:52:19.345Z,17.76
2022-08-29T05:54:46.814Z,17.68
2022-08-29T05:57:19.408Z,17.61
2022-08-29T05:59:48.030Z,17.83
2022-08-29T06:02:15.294Z,17.81
2022-08-29T06:04:42.319Z,17.67
2022-08-29T06:07:09.951Z,17.86
2022-08-29T06:09:38.626Z,17.87
2022-08-29T06:12:06.702Z,17.92
2022-08-29T06:14:34.532Z,17.90
2022-08-29T06:17:02.116Z,17.93
2022-08-29T06:19:31.962Z,17.98
2022-08-29T06:21:58.786Z,17.98
2022-08-29T06:24:25.696Z,17.93
2022-08-29T06:26:52.514Z,18.05
2022-08-29T06:29:19.318Z,18.10
2022-08-29T06:31:46.245Z,17.94
2022-08-29T06:34:13.163Z,18.06
2022-08-29T06:36:40.215Z,17.98
2022-08-29T06:39:10.160Z,18.15
2022-08-29T06:41:40.007Z,18.16
2022-08-29T06:44:08.265Z,18.20
2022-08-29T06:46:39.524Z,18.27
2022-08-29T06:49:10.306Z,18.28
2022-08-29T06:51:39.618Z,18.31
2022-08-29T06:54:09.258Z,18.29
2022-08-29T06:56:38.117Z,18.21
2022-08-29T06:59:06.834Z,18.37
2022-08-29T07:01:34.390Z,18.20
2022-08-29T07:04:02.457Z,18.42
2022-08-29T07:06:31.056Z,18.45
2022-08-29T07:08:59.565Z,18.47
2022-08-29T07:11:32.567Z,18.50
2022-08-29T07:14:04.153Z,18.52
2022-08-29T07:16:34.029Z,18.63
2022-08-29T07:19:03.466Z,18.60
2022-08-29T07:21:30.353Z,18.58
2022-08-29T07:23:58.210Z,18.55
2022-08-29T07:26:36.796Z,18.66
2022-08-29T07:29:10.407Z,18.68
2022-08-29T07:31:39.203Z,18.69
2022-08-29T07:34:07.423Z,18.72
2022-08-29T07:36:35.060Z,18.87
2022-08-29T07:39:07.062Z,18.79
2022-08-29T07:41:34.022Z,18.83
2022-08-29T07:44:00.961Z,18.92
2022-08-29T07:46:27.875Z,18.98
2022-08-29T07:48:54.779Z,19.04
2022-08-29T07:51:23.550Z,19.00
2022-08-29T07:53:52.245Z,19.02
2022-08-29T07:56:33.426Z,19.19
2022-08-29T07:59:04.136Z,19.16
2022-08-29T08:01:31.102Z,19.23
2022-08-29T08:03:58.442Z,19.19
2022-08-29T08:06:27.047Z,19.38
2022-08-29T08:08:54.961Z,19.46
2022-08-29T08:11:23.302Z,19.47
2022-08-29T08:13:50.318Z,19.52
2022-08-29T08:16:20.449Z,19.54
2022-08-29T08:18:48.278Z,19.55
2022-08-29T08:21:15.818Z,19.62
2022-08-29T08:23:43.225Z,19.68
2022-08-29T08:26:12.698Z,19.74
2022-08-29T08:28:40.590Z,19.86
2022-08-29T08:31:09.591Z,19.97
2022-08-29T08:33:40.826Z,20.06
2022-08-29T08:36:24.686Z,20.00
2022-08-29T08:38:53.362Z,20.14
2022-08-29T08:42:07.074Z,20.18
2022-08-29T08:45:00.619Z,20.23
2022-08-29T08:47:56.708Z,20.16
2022-08-29T08:51:00.738Z,20.52
2022-08-29T08:53:39.912Z,20.64
2022-08-29T08:56:32.157Z,20.97
2022-08-29T08:59:21.487Z,20.94
2022-08-29T09:02:11.938Z,21.09
2022-08-29T09:05:08.983Z,21.14
2022-08-29T09:07:57.606Z,21.03
2022-08-29T09:10:37.141Z,21.22
2022-08-29T09:13:38.446Z,21.34
2022-08-29T09:16:31.506Z,21.48
2022-08-29T09:19:09.619Z,21.57
2022-08-29T09:22:02.200Z,21.60
2022-08-29T09:24:49.041Z,21.79
2022-08-29T09:27:28.883Z,22.01
2022-08-29T09:30:28.291Z,22.03
2022-08-29T09:33:08.959Z,22.04
2022-08-29T09:35:47.894Z,22.20
2022-08-29T09:38:17.709Z,22.35
2022-08-29T09:41:07.986Z,22.63
2022-08-29T09:43:43.555Z,22.88
2022-08-29T09:46:21.057Z,22.74
2022-08-29T09:49:00.165Z,22.70
2022-08-29T09:51:37.924Z,22.48
2022-08-29T09:54:26.715Z,22.65
2022-08-29T09:57:09.406Z,22.65
2022-08-29T09:59:45.227Z,22.80
2022-08-29T10:02:15.281Z,23.16
2022-08-29T10:04:47.346Z,23.11
2022-08-29T10:07:30.461Z,23.03
2022-08-29T10:10:19.984Z,23.04
2022-08-29T10:13:15.342Z,22.84
2022-08-29T10:16:06.333Z,23.11
2022-08-29T10:19:06.993Z,23.24
2022-08-29T10:22:27.541Z,23.30
2022-08-29T10:25:24.458Z,23.41
2022-08-29T10:28:15.156Z,23.47
2022-08-29T10:31:13.338Z,23.59
2022-08-29T10:34:06.492Z,23.79
2022-08-29T10:36:38.600Z,23.98
2022-08-29T10:39:43.288Z,24.00
2022-08-29T10:42:19.350Z,24.07
2022-08-29T10:44:55.939Z,24.15
2022-08-29T10:47:46.664Z,24.21
2022-08-29T10:50:45.257Z,24.40
2022-08-29T10:53:20.518Z,24.57
2022-08-29T10:56:14.050Z,24.79
2022-08-29T10:58:59.649Z,24.84
2022-08-29T11:01:45.758Z,24.84
2022-08-29T11:04:46.015Z,24.91
2022-08-29T11:07:39.905Z,25.08
2022-08-29T11:10:21.384Z,25.05
2022-08-29T11:13:28.816Z,25.22
2022-08-29T11:16:29.609Z,25.22
2022-08-29T11:19:05.002Z,25.51
2022-08-29T11:21:42.890Z,25.73
2022-08-29T11:24:12.093Z,25.89
2022-08-29T11:27:10.078Z,26.33
2022-08-29T11:29:53.462Z,26.05
2022-08-29T11:33:01.987Z,25.88
2022-08-29T11:36:22.070Z,26.25
2022-08-29T11:39:09.080Z,26.15
2022-08-29T11:41:46.545Z,26.50
2022-08-29T11:44:34.122Z,26.39
2022-08-29T11:48:00.515Z,26.43
2022-08-29T11:50:37.870Z,26.33
2022-08-29T11:53:16.760Z,26.30
2022-08-29T11:56:14.066Z,26.42
2022-08-29T11:58:50.184Z,26.27
2022-08-29T12:01:58.443Z,26.32
2022-08-29T12:05:29.174Z,26.77
2022-08-29T12:08:14.418Z,26.75
2022-08-29T12:10:56.000Z,26.67
2022-08-29T12:13:48.120Z,26.47
2022-08-29T12:16:19.661Z,26.25
2022-08-29T12:19:01.012Z,26.73
2022-08-29T12:21:45.508Z,27.05
2022-08-29T12:24:40.910Z,26.82
2022-08-29T12:27:46.112Z,26.68
2022-08-29T12:30:14.425Z,26.64
2022-08-29T12:33:03.912Z,26.46
2022-08-29T12:36:18.817Z,26.69
2022-08-29T12:39:19.435Z,26.68
2022-08-29T12:42:07.181Z,26.68
2022-08-29T12:44:45.392Z,26.71
2022-08-29T12:47:22.020Z,26.74
2022-08-29T12:49:55.808Z,26.77
2022-08-29T12:52:37.708Z,26.78
2022-08-29T12:55:29.089Z,26.77
2022-08-29T12:57:57.495Z,26.72
2022-08-29T13:00:30.199Z,26.62
2022-08-29T13:03:18.676Z,26.64
2022-08-29T13:05:47.272Z,26.54
2022-08-29T13:08:33.682Z,26.64
2022-08-29T13:11:07.790Z,26.66
2022-08-29T13:13:35.733Z,26.62
2022-08-29T13:16:08.105Z,26.49
2022-08-29T13:18:48.834Z,26.58
2022-08-29T13:21:31.748Z,26.96
2022-08-29T13:24:12.341Z,27.06
2022-08-29T13:27:04.179Z,27.08
2022-08-29T13:29:40.177Z,26.93
2022-08-29T13:32:26.704Z,26.86
2022-08-29T13:35:28.427Z,27.07
2022-08-29T13:38:19.524Z,27.43
2022-08-29T13:40:52.945Z,27.53
2022-08-29T13:43:38.518Z,27.41
2022-08-29T13:46:14.874Z,27.19
2022-08-29T13:48:43.625Z,27.10
2022-08-29T13:51:10.767Z,27.00
2022-08-29T13:53:37.674Z,27.13
2022-08-29T13:56:11.408Z,26.99
2022-08-29T13:58:38.252Z,27.10
2022-08-29T14:01:29.373Z,27.22
2022-08-29T14:03:52.608Z,27.18
2022-08-29T14:06:22.594Z,27.33
2022-08-29T14:08:51.046Z,27.28
2022-08-29T14:11:18.353Z,27.31
2022-08-29T14:13:45.676Z,27.23
2022-08-29T14:16:13.933Z,27.30
2022-08-29T14:18:41.006Z,27.39
2022-08-29T14:21:07.984Z,27.16
2022-08-29T14:23:34.886Z,27.28
2022-08-29T14:26:01.978Z,27.16
2022-08-29T14:28:28.913Z,27.11
2022-08-29T14:30:55.883Z,27.13
2022-08-29T14:33:23.553Z,27.06
2022-08-29T14:35:51.838Z,27.04
2022-08-29T14:38:19.304Z,27.00
2022-08-29T14:40:46.474Z,26.90
2022-08-29T14:43:13.512Z,26.73
2022-08-29T14:45:40.332Z,26.76
2022-08-29T14:48:07.244Z,26.74
2022-08-29T14:50:34.181Z,26.72
2022-08-29T14:53:01.091Z,26.79
2022-08-29T14:55:29.310Z,26.73
2022-08-29T14:57:56.211Z,26.97
2022-08-29T15:00:28.849Z,26.94
2022-08-29T15:02:56.491Z,27.43
2022-08-29T15:05:23.971Z,27.27
2022-08-29T15:07:51.154Z,27.24
2022-08-29T15:10:22.176Z,27.08
2022-08-29T15:12:49.182Z,27.09
2022-08-29T15:15:16.122Z,27.05
2022-08-29T15:17:43.770Z,26.96
2022-08-29T15:23:00.523Z,27.01
2022-08-29T15:25:27.365Z,27.03
2022-08-29T15:27:54.239Z,27.02
2022-08-29T15:30:24.690Z,27.07
2022-08-29T15:32:52.186Z,27.05
2022-08-29T15:35:19.128Z,27.10
2022-08-29T15:37:45.988Z,27.14
2022-08-29T15:40:13.758Z,27.08
2022-08-29T15:42:41.060Z,27.11
2022-08-29T15:45:12.034Z,27.17
2022-08-29T15:47:39.851Z,27.14
2022-08-29T15:50:08.623Z,27.12
2022-08-29T15:52:36.902Z,27.16
2022-08-29T15:55:06.379Z,27.33
2022-08-29T15:57:33.540Z,27.21
2022-08-29T16:00:29.373Z,27.12
2022-08-29T16:02:59.724Z,27.31
2022-08-29T16:05:26.644Z,27.16
2022-08-29T16:07:53.505Z,27.13
2022-08-29T16:10:20.529Z,27.09
2022-08-29T16:12:47.338Z,27.02
2022-08-29T16:15:14.433Z,27.12
2022-08-29T16:17:41.395Z,27.06
2022-08-29T16:20:11.922Z,26.94
2022-08-29T16:22:41.053Z,26.85
2022-08-29T16:25:10.797Z,26.98
2022-08-29T16:27:37.632Z,26.97
2022-08-29T16:30:06.487Z,26.99
2022-08-29T16:32:33.729Z,26.95
2022-08-29T16:35:00.557Z,27.12
2022-08-29T16:37:27.659Z,27.19
2022-08-29T16:39:54.963Z,27.31
2022-08-29T16:42:22.035Z,27.36
2022-08-29T16:44:48.889Z,27.41
2022-08-29T16:47:15.697Z,27.45
2022-08-29T16:49:42.628Z,27.44
2022-08-29T16:52:09.437Z,27.39
2022-08-29T16:54:36.303Z,27.44
2022-08-29T16:57:03.257Z,27.40
2022-08-29T16:59:30.154Z,27.33
2022-08-29T17:01:57.039Z,27.36
2022-08-29T17:04:27.687Z,27.37
2022-08-29T17:06:55.945Z,27.20
2022-08-29T17:09:25.031Z,27.28
2022-08-29T17:11:53.624Z,27.25
2022-08-29T17:14:22.184Z,27.22
2022-08-29T17:16:51.501Z,27.18
2022-08-29T17:19:19.597Z,27.14
2022-08-29T17:21:47.767Z,27.08
2022-08-29T17:24:15.339Z,27.03
2022-08-29T17:26:46.088Z,26.96
2022-08-29T17:29:13.912Z,26.96
2022-08-29T17:31:41.050Z,26.82
2022-08-29T17:34:09.269Z,26.76
2022-08-29T17:36:37.692Z,26.79
2022-08-29T17:39:06.454Z,26.75
2022-08-29T17:41:37.125Z,26.69
2022-08-29T17:44:06.873Z,26.62
2022-08-29T17:46:33.827Z,26.54
2022-08-29T17:49:05.539Z,26.55
2022-08-29T17:51:34.770Z,26.41
2022-08-29T17:54:01.629Z,26.41
2022-08-29T17:56:49.094Z,26.36
2022-08-29T17:59:18.752Z,26.23
2022-08-29T18:01:46.511Z,26.29
2022-08-29T18:04:14.298Z,26.25
2022-08-29T18:06:41.725Z,26.20
2022-08-29T18:09:09.211Z,26.06
2022-08-29T18:11:43.520Z,26.07
2022-08-29T18:14:11.462Z,25.96
2022-08-29T18:16:38.650Z,25.95
2022-08-29T18:19:06.696Z,25.79
2022-08-29T18:21:33.950Z,25.88
2022-08-29T18:24:00.926Z,25.91
2022-08-29T18:26:27.959Z,25.61
2022-08-29T18:28:56.060Z,25.53
2022-08-29T18:31:23.559Z,25.50
2022-08-29T18:34:06.176Z,25.40
2022-08-29T18:36:36.658Z,25.29
2022-08-29T18:39:06.344Z,25.21
2022-08-29T18:41:33.730Z,25.18
2022-08-29T18:44:00.575Z,25.01
2022-08-29T18:46:28.442Z,25.03
2022-08-29T18:48:55.396Z,24.96
2022-08-29T18:51:22.245Z,24.91
2022-08-29T18:53:49.165Z,24.81
2022-08-29T18:56:16.213Z,24.84
2022-08-29T18:58:46.718Z,24.80
2022-08-29T19:01:27.156Z,24.74
2022-08-29T19:03:57.673Z,24.57
2022-08-29T19:06:25.784Z,24.65
2022-08-29T19:08:56.481Z,24.56
2022-08-29T19:11:24.492Z,24.54
2022-08-29T19:13:52.191Z,24.45
2022-08-29T19:16:21.557Z,24.47
2022-08-29T19:18:48.995Z,24.30
2022-08-29T19:21:15.892Z,24.32
2022-08-29T19:23:52.347Z,24.32
2022-08-29T19:26:35.605Z,24.29
2022-08-29T19:29:12.385Z,24.25
2022-08-29T19:31:41.095Z,24.24
2022-08-29T19:34:07.998Z,24.20
2022-08-29T19:36:34.856Z,24.11
2022-08-29T19:39:01.673Z,24.04
2022-08-29T19:41:28.481Z,23.99
2022-08-29T19:43:55.319Z,24.01
2022-08-29T19:46:24.030Z,23.84
2022-08-29T19:48:52.303Z,23.84
2022-08-29T19:51:24.610Z,23.85
2022-08-29T19:53:53.270Z,23.76
2022-08-29T19:56:20.311Z,23.61
2022-08-29T19:58:47.583Z,23.61
2022-08-29T20:01:17.026Z,23.50
2022-08-29T20:03:43.958Z,23.60
2022-08-29T20:06:12.220Z,23.54
2022-08-29T20:08:42.682Z,23.51
2022-08-29T20:11:19.093Z,23.43
2022-08-29T20:13:51.550Z,23.39
2022-08-29T20:16:23.729Z,23.20
2022-08-29T20:18:52.121Z,23.29
2022-08-29T20:21:20.757Z,23.18
2022-08-29T20:23:52.868Z,23.21
2022-08-29T20:26:24.158Z,23.17
2022-08-29T20:28:54.022Z,23.14
2022-08-29T20:31:22.221Z,23.11
2022-08-29T20:33:49.276Z,23.10
2022-08-29T20:36:41.070Z,23.06
2022-08-29T20:39:11.288Z,23.03
2022-08-29T20:41:38.366Z,22.93
2022-08-29T20:44:10.098Z,22.94
2022-08-29T20:46:42.052Z,22.96
2022-08-29T20:49:11.533Z,22.89
2022-08-29T20:51:43.272Z,22.85
2022-08-29T20:54:12.787Z,22.80
2022-08-29T20:56:39.703Z,22.67
2022-08-29T20:59:07.173Z,22.70
2022-08-29T21:01:35.925Z,22.66
2022-08-29T21:04:24.205Z,22.61
2022-08-29T21:07:00.161Z,22.60
2022-08-29T21:09:27.891Z,22.45
2022-08-29T21:11:55.558Z,22.47
2022-08-29T21:14:22.887Z,22.45
2022-08-29T21:16:52.103Z,22.43
2022-08-29T21:19:19.302Z,22.28
2022-08-29T21:21:46.296Z,22.36
2022-08-29T21:24:13.472Z,22.31
2022-08-29T21:26:40.481Z,22.29
2022-08-29T21:29:08.572Z,22.14
2022-08-29T21:31:36.142Z,22.10
2022-08-29T21:34:06.960Z,22.16
2022-08-29T21:36:35.865Z,22.13
2022-08-29T21:39:04.188Z,22.13
2022-08-29T21:41:32.601Z,21.99
2022-08-29T21:43:59.950Z,22.12
2022-08-29T21:46:30.501Z,22.07
2022-08-29T21:49:01.657Z,22.06
2022-08-29T21:51:30.762Z,22.07
2022-08-29T21:53:58.593Z,22.06
2022-08-29T21:56:28.638Z,21.89
2022-08-29T21:58:56.773Z,21.91
2022-08-29T22:01:33.783Z,21.94
2022-08-29T22:04:02.401Z,21.93
2022-08-29T22:06:29.768Z,21.87
2022-08-29T22:08:57.527Z,21.86
2022-08-29T22:11:37.482Z,21.86
2022-08-29T22:14:07.144Z,21.58
2022-08-29T22:16:35.635Z,21.72
2022-08-29T22:19:15.525Z,21.72
2022-08-29T22:21:46.575Z,21.70
2022-08-29T22:24:16.098Z,21.60
2022-08-29T22:26:44.881Z,21.63
2022-08-29T22:29:15.993Z,21.60
2022-08-29T22:31:44.855Z,21.47
2022-08-29T22:34:17.687Z,21.43
2022-08-29T22:36:45.546Z,21.50
2022-08-29T22:39:12.678Z,21.49
2022-08-29T22:41:41.311Z,21.39
2022-08-29T22:47:00.189Z,21.16
2022-08-29T22:49:33.237Z,21.10
2022-08-29T22:52:00.704Z,21.01
2022-08-29T22:54:36.434Z,21.07
2022-08-29T22:57:13.683Z,21.04
2022-08-29T22:59:42.277Z,20.99
2022-08-29T23:02:10.599Z,20.93
2022-08-29T23:04:38.542Z,20.93
2022-08-29T23:07:06.389Z,21.00
2022-08-29T23:09:35.450Z,20.96
2022-08-29T23:12:05.031Z,20.89
2022-08-29T23:14:34.800Z,20.82
2022-08-29T23:17:02.693Z,20.80
2022-08-29T23:19:29.514Z,20.89
2022-08-29T23:21:58.071Z,20.69
2022-08-29T23:24:26.231Z,20.71
2022-08-29T23:26:53.484Z,20.74
2022-08-29T23:29:20.756Z,20.73
2022-08-29T23:31:47.591Z,20.59
2022-08-29T23:34:14.443Z,20.54
2022-08-29T23:36:41.336Z,20.63
2022-08-29T23:39:08.597Z,20.59
2022-08-29T23:41:36.264Z,20.57
2022-08-29T23:44:03.509Z,20.52
2022-08-29T23:46:30.371Z,20.56
2022-08-29T23:48:58.332Z,20.47
2022-08-29T23:51:25.154Z,20.40
2022-08-29T23:53:52.086Z,20.39
2022-08-29T23:56:21.298Z,20.46
2022-08-29T23:58:48.678Z,20.38
